sensor_id;sensor_type;location;lat;lon;timestamp;pressure;altitude;pressure_sealevel;temperature;humidity
85317;BME280;75721;52.330;9.772;2024-03-02T00:02:00;99990.25;;;8.32;86.87
85317;BME280;75721;52.330;9.772;2024-03-02T00:04:26;99992.25;;;8.28;86.93
85317;BME280;75721;52.330;9.772;2024-03-02T00:06:54;99991.03;;;8.29;87.72
85317;BME280;75721;52.330;9.772;2024-03-02T00:09:22;99994.63;;;8.26;87.36
85317;BME280;75721;52.330;9.772;2024-03-02T00:11:47;99991.03;;;8.29;87.23
85317;BME280;75721;52.330;9.772;2024-03-02T00:14:13;99991.03;;;8.29;87.39
85317;BME280;75721;52.330;9.772;2024-03-02T00:16:38;99991.44;;;8.24;87.75
85317;BME280;75721;52.330;9.772;2024-03-02T00:19:05;99990.22;;;8.25;87.31
85317;BME280;75721;52.330;9.772;2024-03-02T00:21:31;99990.22;;;8.25;88.14
85317;BME280;75721;52.330;9.772;2024-03-02T00:23:57;99992.16;;;8.21;87.88
85317;BME280;75721;52.330;9.772;2024-03-02T00:26:23;99994.16;;;8.20;88.47
85317;BME280;75721;52.330;9.772;2024-03-02T00:28:48;99996.94;;;8.17;88.64
85317;BME280;75721;52.330;9.772;2024-03-02T00:31:15;99996.13;;;8.16;89.03
85317;BME280;75721;52.330;9.772;2024-03-02T00:33:49;99995.34;;;8.16;88.88
85317;BME280;75721;52.330;9.772;2024-03-02T00:36:26;99998.50;;;8.18;88.56
85317;BME280;75721;52.330;9.772;2024-03-02T00:38:54;99995.34;;;8.16;89.37
85317;BME280;75721;52.330;9.772;2024-03-02T00:41:31;99996.88;;;8.13;89.73
85317;BME280;75721;52.330;9.772;2024-03-02T00:43:58;100004.47;;;8.13;88.99
85317;BME280;75721;52.330;9.772;2024-03-02T00:46:27;99995.69;;;8.11;90.00
85317;BME280;75721;52.330;9.772;2024-03-02T00:48:55;100005.63;;;8.08;89.44
85317;BME280;75721;52.330;9.772;2024-03-02T00:51:22;99996.88;;;8.13;89.06
85317;BME280;75721;52.330;9.772;2024-03-02T00:53:47;99996.50;;;8.11;90.42
85317;BME280;75721;52.330;9.772;2024-03-02T00:56:13;100002.88;;;8.12;89.29
85317;BME280;75721;52.330;9.772;2024-03-02T00:58:39;99998.91;;;8.13;88.97
85317;BME280;75721;52.330;9.772;2024-03-02T01:01:04;100000.09;;;8.15;89.64
85317;BME280;75721;52.330;9.772;2024-03-02T01:03:31;100003.25;;;8.14;89.46
85317;BME280;75721;52.330;9.772;2024-03-02T01:05:57;100004.47;;;8.13;90.40
85317;BME280;75721;52.330;9.772;2024-03-02T01:08:22;100001.69;;;8.16;89.44
85317;BME280;75721;52.330;9.772;2024-03-02T01:10:47;100002.47;;;8.13;89.37
85317;BME280;75721;52.330;9.772;2024-03-02T01:13:12;100007.63;;;8.15;90.16
85317;BME280;75721;52.330;9.772;2024-03-02T01:15:38;100000.47;;;8.14;89.87
85317;BME280;75721;52.330;9.772;2024-03-02T01:18:03;100010.03;;;8.13;89.69
85317;BME280;75721;52.330;9.772;2024-03-02T01:20:29;100008.84;;;8.14;90.45
85317;BME280;75721;52.330;9.772;2024-03-02T01:22:54;100013.19;;;8.15;89.87
85317;BME280;75721;52.330;9.772;2024-03-02T01:25:20;100008.84;;;8.14;90.10
85317;BME280;75721;52.330;9.772;2024-03-02T01:27:45;100013.19;;;8.15;90.61
85317;BME280;75721;52.330;9.772;2024-03-02T01:30:11;100014.78;;;8.12;89.93
85317;BME280;75721;52.330;9.772;2024-03-02T01:32:37;100016.38;;;8.13;89.77
85317;BME280;75721;52.330;9.772;2024-03-02T01:35:03;100010.41;;;8.15;89.40
85317;BME280;75721;52.330;9.772;2024-03-02T01:37:29;100008.03;;;8.10;90.26
85317;BME280;75721;52.330;9.772;2024-03-02T01:39:54;100010.41;;;8.11;89.85
85317;BME280;75721;52.330;9.772;2024-03-02T01:42:19;100000.44;;;8.07;90.70
85317;BME280;75721;52.330;9.772;2024-03-02T01:44:45;100007.63;;;8.11;89.28
85317;BME280;75721;52.330;9.772;2024-03-02T01:47:10;100002.44;;;8.10;89.89
85317;BME280;75721;52.330;9.772;2024-03-02T01:49:35;100003.66;;;8.09;90.08
85317;BME280;75721;52.330;9.772;2024-03-02T01:52:01;99993.28;;;8.06;90.64
85317;BME280;75721;52.330;9.772;2024-03-02T01:54:26;100001.25;;;8.07;90.79
85317;BME280;75721;52.330;9.772;2024-03-02T01:56:52;99993.28;;;8.06;89.95
85317;BME280;75721;52.330;9.772;2024-03-02T01:59:17;99988.50;;;8.03;90.59
85317;BME280;75721;52.330;9.772;2024-03-02T02:01:43;99982.13;;;8.02;89.59
85317;BME280;75721;52.330;9.772;2024-03-02T02:04:08;99979.34;;;8.02;90.15
85317;BME280;75721;52.330;9.772;2024-03-02T02:06:34;99978.13;;;8.00;90.12
85317;BME280;75721;52.330;9.772;2024-03-02T02:08:59;99968.25;;;8.06;90.07
85317;BME280;75721;52.330;9.772;2024-03-02T02:11:24;99974.19;;;8.04;90.07
85317;BME280;75721;52.330;9.772;2024-03-02T02:13:50;99971.03;;;8.06;89.54
85317;BME280;75721;52.330;9.772;2024-03-02T02:16:15;99968.97;;;7.96;90.51
85317;BME280;75721;52.330;9.772;2024-03-02T02:18:40;99968.59;;;8.01;90.40
85317;BME280;75721;52.330;9.772;2024-03-02T02:21:06;99970.22;;;8.02;90.23
85317;BME280;75721;52.330;9.772;2024-03-02T02:23:31;99959.03;;;7.98;90.04
85317;BME280;75721;52.330;9.772;2024-03-02T02:25:56;99968.59;;;8.01;90.42
85317;BME280;75721;52.330;9.772;2024-03-02T02:28:21;99962.06;;;7.76;92.07
85317;BME280;75721;52.330;9.772;2024-03-02T02:30:47;99961.25;;;7.72;92.74
85317;BME280;75721;52.330;9.772;2024-03-02T02:33:12;99958.03;;;7.66;93.74
85317;BME280;75721;52.330;9.772;2024-03-02T02:35:37;99965.94;;;7.61;92.53
85317;BME280;75721;52.330;9.772;2024-03-02T02:38:03;99964.31;;;7.56;93.32
85317;BME280;75721;52.330;9.772;2024-03-02T02:40:29;99976.22;;;7.53;93.02
85317;BME280;75721;52.330;9.772;2024-03-02T02:42:57;99967.47;;;7.55;93.65
85317;BME280;75721;52.330;9.772;2024-03-02T02:45:24;99965.13;;;7.57;92.87
85317;BME280;75721;52.330;9.772;2024-03-02T02:47:49;99967.53;;;7.58;93.94
85317;BME280;75721;52.330;9.772;2024-03-02T02:50:15;99968.34;;;7.62;93.14
85317;BME280;75721;52.330;9.772;2024-03-02T02:52:41;99973.94;;;7.66;92.18
85317;BME280;75721;52.330;9.772;2024-03-02T02:55:11;99967.16;;;7.63;92.44
85317;BME280;75721;52.330;9.772;2024-03-02T02:57:38;99973.09;;;7.62;92.29
85317;BME280;75721;52.330;9.772;2024-03-02T03:02:38;99965.13;;;7.57;92.53
85317;BME280;75721;52.330;9.772;2024-03-02T03:05:05;99963.56;;;7.59;92.75
85317;BME280;75721;52.330;9.772;2024-03-02T03:07:31;99954.00;;;7.57;92.27
85317;BME280;75721;52.330;9.772;2024-03-02T03:09:56;99956.84;;;7.64;91.39
85317;BME280;75721;52.330;9.772;2024-03-02T03:12:22;99949.31;;;7.68;90.72
85317;BME280;75721;52.330;9.772;2024-03-02T03:14:47;99954.06;;;7.64;90.79
85317;BME280;75721;52.330;9.772;2024-03-02T03:17:12;99950.09;;;7.65;90.63
85317;BME280;75721;52.330;9.772;2024-03-02T03:19:38;99950.84;;;7.58;91.33
85317;BME280;75721;52.330;9.772;2024-03-02T03:22:03;99958.69;;;7.46;91.61
85317;BME280;75721;52.330;9.772;2024-03-02T03:24:29;99960.16;;;7.29;92.53
85317;BME280;75721;52.330;9.772;2024-03-02T03:26:55;99950.94;;;7.22;93.60
85317;BME280;75721;52.330;9.772;2024-03-02T03:29:20;99956.88;;;7.17;94.05
85317;BME280;75721;52.330;9.772;2024-03-02T03:31:45;99953.28;;;7.20;92.02
85317;BME280;75721;52.330;9.772;2024-03-02T03:34:10;99950.00;;;7.07;92.91
85317;BME280;75721;52.330;9.772;2024-03-02T03:36:41;99941.03;;;7.21;91.94
85317;BME280;75721;52.330;9.772;2024-03-02T03:39:06;99942.19;;;7.20;91.94
85317;BME280;75721;52.330;9.772;2024-03-02T03:41:31;99952.13;;;7.21;91.82
85317;BME280;75721;52.330;9.772;2024-03-02T03:43:56;99957.72;;;7.24;91.36
85317;BME280;75721;52.330;9.772;2024-03-02T03:46:22;99955.16;;;7.05;91.85
85317;BME280;75721;52.330;9.772;2024-03-02T03:48:47;99951.88;;;6.93;93.44
85317;BME280;75721;52.330;9.772;2024-03-02T03:51:12;99958.22;;;6.93;93.19
85317;BME280;75721;52.330;9.772;2024-03-02T03:53:37;99947.91;;;6.94;93.24
85317;BME280;75721;52.330;9.772;2024-03-02T03:56:03;99943.19;;;6.98;92.57
85317;BME280;75721;52.330;9.772;2024-03-02T03:58:28;99949.94;;;7.00;92.81
85317;BME280;75721;52.330;9.772;2024-03-02T04:00:54;99946.38;;;7.00;92.73
85317;BME280;75721;52.330;9.772;2024-03-02T04:03:19;99948.94;;;6.79;93.54
85317;BME280;75721;52.330;9.772;2024-03-02T04:05:44;99945.34;;;6.75;93.30
85317;BME280;75721;52.330;9.772;2024-03-02T04:08:09;99947.38;;;6.81;93.57
85317;BME280;75721;52.330;9.772;2024-03-02T04:10:36;99946.66;;;6.88;92.71
85317;BME280;75721;52.330;9.772;2024-03-02T04:13:01;99948.97;;;6.82;92.82
85317;BME280;75721;52.330;9.772;2024-03-02T04:15:27;99951.19;;;6.66;94.08
85317;BME280;75721;52.330;9.772;2024-03-02T04:17:52;99950.91;;;6.75;93.61
85317;BME280;75721;52.330;9.772;2024-03-02T04:20:17;99954.00;;;6.70;93.68
85317;BME280;75721;52.330;9.772;2024-03-02T04:22:42;99957.41;;;6.53;94.39
85317;BME280;75721;52.330;9.772;2024-03-02T04:25:08;99955.31;;;6.46;95.21
85317;BME280;75721;52.330;9.772;2024-03-02T04:27:34;99953.06;;;6.55;94.07
85317;BME280;75721;52.330;9.772;2024-03-02T04:30:00;99948.03;;;6.68;93.76
85317;BME280;75721;52.330;9.772;2024-03-02T04:32:26;99942.88;;;6.70;94.27
85317;BME280;75721;52.330;9.772;2024-03-02T04:34:52;99949.72;;;6.76;93.85
85317;BME280;75721;52.330;9.772;2024-03-02T04:37:17;99950.81;;;6.68;94.06
85317;BME280;75721;52.330;9.772;2024-03-02T04:39:42;99969.66;;;6.52;94.55
85317;BME280;75721;52.330;9.772;2024-03-02T04:42:08;99960.84;;;6.43;94.79
85317;BME280;75721;52.330;9.772;2024-03-02T04:44:33;99959.03;;;6.24;94.84
85317;BME280;75721;52.330;9.772;2024-03-02T04:46:58;99969.41;;;6.31;95.57
85317;BME280;75721;52.330;9.772;2024-03-02T04:49:23;99968.56;;;6.27;95.78
85317;BME280;75721;52.330;9.772;2024-03-02T04:51:49;99981.16;;;6.21;95.71
85317;BME280;75721;52.330;9.772;2024-03-02T04:54:14;99974.88;;;6.24;96.18
85317;BME280;75721;52.330;9.772;2024-03-02T04:56:39;99969.66;;;6.19;95.15
85317;BME280;75721;52.330;9.772;2024-03-02T04:59:10;99964.44;;;6.13;95.76
85317;BME280;75721;52.330;9.772;2024-03-02T05:01:35;99967.06;;;6.03;96.09
85317;BME280;75721;52.330;9.772;2024-03-02T05:04:01;99970.13;;;5.94;96.62
85317;BME280;75721;52.330;9.772;2024-03-02T05:06:26;99962.75;;;6.05;96.93
85317;BME280;75721;52.330;9.772;2024-03-02T05:08:51;99973.84;;;6.05;95.90
85317;BME280;75721;52.330;9.772;2024-03-02T05:11:16;99973.84;;;5.79;97.48
85317;BME280;75721;52.330;9.772;2024-03-02T05:14:11;99968.31;;;5.79;98.03
85317;BME280;75721;52.330;9.772;2024-03-02T05:16:36;99972.41;;;5.89;97.78
85317;BME280;75721;52.330;9.772;2024-03-02T05:19:03;99965.09;;;6.03;97.25
85317;BME280;75721;52.330;9.772;2024-03-02T05:21:28;99970.38;;;6.12;96.95
85317;BME280;75721;52.330;9.772;2024-03-02T05:23:54;99966.34;;;6.09;96.49
85317;BME280;75721;52.330;9.772;2024-03-02T05:26:19;99960.06;;;6.13;97.13
85317;BME280;75721;52.330;9.772;2024-03-02T05:28:44;99953.38;;;6.17;97.06
85317;BME280;75721;52.330;9.772;2024-03-02T05:31:10;99943.94;;;6.22;96.90
85317;BME280;75721;52.330;9.772;2024-03-02T05:33:39;99952.59;;;6.17;97.34
85317;BME280;75721;52.330;9.772;2024-03-02T05:36:04;99960.41;;;6.07;96.21
85317;BME280;75721;52.330;9.772;2024-03-02T05:38:30;99961.69;;;5.87;97.43
85317;BME280;75721;52.330;9.772;2024-03-02T05:40:55;99969.75;;;5.96;97.55
85317;BME280;75721;52.330;9.772;2024-03-02T05:43:21;99972.53;;;5.70;98.42
85317;BME280;75721;52.330;9.772;2024-03-02T05:45:46;99971.81;;;5.76;98.95
85317;BME280;75721;52.330;9.772;2024-03-02T05:48:11;99980.75;;;5.89;98.42
85317;BME280;75721;52.330;9.772;2024-03-02T05:50:37;99979.25;;;5.95;98.61
85317;BME280;75721;52.330;9.772;2024-03-02T05:53:02;99983.59;;;5.92;98.31
85317;BME280;75721;52.330;9.772;2024-03-02T05:55:27;99982.50;;;6.00;98.58
85317;BME280;75721;52.330;9.772;2024-03-02T05:57:53;99987.59;;;5.72;97.71
85317;BME280;75721;52.330;9.772;2024-03-02T06:00:37;99994.63;;;5.66;98.90
85317;BME280;75721;52.330;9.772;2024-03-02T06:03:03;99991.59;;;5.49;99.58
85317;BME280;75721;52.330;9.772;2024-03-02T06:05:29;99989.97;;;5.48;98.93
85317;BME280;75721;52.330;9.772;2024-03-02T06:07:54;99998.38;;;5.51;100.00
85317;BME280;75721;52.330;9.772;2024-03-02T06:10:19;99994.13;;;5.57;99.62
85317;BME280;75721;52.330;9.772;2024-03-02T06:12:45;99988.19;;;5.59;99.50
85317;BME280;75721;52.330;9.772;2024-03-02T06:15:11;99984.28;;;5.63;100.00
85317;BME280;75721;52.330;9.772;2024-03-02T06:17:36;99983.72;;;5.77;100.00
85317;BME280;75721;52.330;9.772;2024-03-02T06:20:02;99989.16;;;5.70;100.00
85317;BME280;75721;52.330;9.772;2024-03-02T06:22:27;99998.28;;;5.48;99.39
85317;BME280;75721;52.330;9.772;2024-03-02T06:24:53;100004.28;;;5.50;100.00
85317;BME280;75721;52.330;9.772;2024-03-02T06:27:18;100012.19;;;5.25;100.00
85317;BME280;75721;52.330;9.772;2024-03-02T06:29:43;100010.56;;;5.24;100.00
85317;BME280;75721;52.330;9.772;2024-03-02T06:32:08;100022.50;;;5.28;100.00
85317;BME280;75721;52.330;9.772;2024-03-02T06:34:34;100013.28;;;5.43;100.00
85317;BME280;75721;52.330;9.772;2024-03-02T06:36:59;100017.31;;;5.49;100.00
85317;BME280;75721;52.330;9.772;2024-03-02T06:39:24;100021.88;;;5.38;100.00
85317;BME280;75721;52.330;9.772;2024-03-02T06:41:51;100011.88;;;5.56;100.00
85317;BME280;75721;52.330;9.772;2024-03-02T06:44:16;100019.22;;;5.68;100.00
85317;BME280;75721;52.330;9.772;2024-03-02T06:46:41;100015.38;;;5.76;100.00
85317;BME280;75721;52.330;9.772;2024-03-02T06:49:07;100016.75;;;5.85;100.00
85317;BME280;75721;52.330;9.772;2024-03-02T06:51:33;100019.22;;;5.68;100.00
85317;BME280;75721;52.330;9.772;2024-03-02T06:53:59;100020.75;;;5.65;100.00
85317;BME280;75721;52.330;9.772;2024-03-02T06:56:24;100021.50;;;5.85;100.00
85317;BME280;75721;52.330;9.772;2024-03-02T06:58:49;100022.09;;;5.97;100.00
85317;BME280;75721;52.330;9.772;2024-03-02T07:01:15;100015.78;;;6.00;100.00
85317;BME280;75721;52.330;9.772;2024-03-02T07:03:40;100019.72;;;5.99;100.00
85317;BME280;75721;52.330;9.772;2024-03-02T07:06:05;100017.25;;;6.21;100.00
85317;BME280;75721;52.330;9.772;2024-03-02T07:08:31;100016.66;;;6.34;99.96
85317;BME280;75721;52.330;9.772;2024-03-02T07:10:56;100013.50;;;6.36;99.98
85317;BME280;75721;52.330;9.772;2024-03-02T07:13:22;100023.06;;;6.42;99.30
85317;BME280;75721;52.330;9.772;2024-03-02T07:15:47;100025.94;;;6.49;99.94
85317;BME280;75721;52.330;9.772;2024-03-02T07:18:31;100015.00;;;6.63;99.73
85317;BME280;75721;52.330;9.772;2024-03-02T07:20:57;100023.50;;;6.77;99.87
85317;BME280;75721;52.330;9.772;2024-03-02T07:23:26;100025.97;;;6.82;99.12
85317;BME280;75721;52.330;9.772;2024-03-02T07:25:56;100035.06;;;6.79;99.44
85317;BME280;75721;52.330;9.772;2024-03-02T07:28:22;100032.59;;;6.74;99.70
85317;BME280;75721;52.330;9.772;2024-03-02T07:30:57;100028.91;;;6.96;99.72
85317;BME280;75721;52.330;9.772;2024-03-02T07:33:23;100033.00;;;7.09;99.24
85317;BME280;75721;52.330;9.772;2024-03-02T07:35:49;100029.25;;;7.31;98.13
85317;BME280;75721;52.330;9.772;2024-03-02T07:38:14;100034.88;;;7.38;97.44
85317;BME280;75721;52.330;9.772;2024-03-02T07:40:39;100038.13;;;7.43;97.06
85317;BME280;75721;52.330;9.772;2024-03-02T07:43:05;100050.91;;;7.51;97.84
85317;BME280;75721;52.330;9.772;2024-03-02T07:45:30;100051.78;;;7.62;96.55
85317;BME280;75721;52.330;9.772;2024-03-02T07:47:56;100049.56;;;7.82;94.15
85317;BME280;75721;52.330;9.772;2024-03-02T07:50:21;100048.41;;;7.90;94.38
85317;BME280;75721;52.330;9.772;2024-03-02T07:52:47;100055.38;;;8.17;94.41
85317;BME280;75721;52.330;9.772;2024-03-02T07:55:12;100060.13;;;8.16;94.14
85317;BME280;75721;52.330;9.772;2024-03-02T07:57:38;100056.34;;;8.42;93.41
85317;BME280;75721;52.330;9.772;2024-03-02T08:00:04;100054.03;;;8.54;91.97
85317;BME280;75721;52.330;9.772;2024-03-02T08:02:37;100048.56;;;8.75;90.09
85317;BME280;75721;52.330;9.772;2024-03-02T08:05:02;100052.63;;;8.99;89.28
85317;BME280;75721;52.330;9.772;2024-03-02T08:07:28;100045.50;;;9.23;88.03
85317;BME280;75721;52.330;9.772;2024-03-02T08:09:53;100036.00;;;9.45;86.19
85317;BME280;75721;52.330;9.772;2024-03-02T08:12:18;100051.56;;;9.77;84.39
85317;BME280;75721;52.330;9.772;2024-03-02T08:14:45;100049.56;;;9.88;83.56
85317;BME280;75721;52.330;9.772;2024-03-02T08:17:10;100045.97;;;10.02;84.78
85317;BME280;75721;52.330;9.772;2024-03-02T08:19:37;100055.53;;;10.04;82.35
85317;BME280;75721;52.330;9.772;2024-03-02T08:22:02;100053.16;;;10.20;83.16
85317;BME280;75721;52.330;9.772;2024-03-02T08:24:28;100056.69;;;10.42;82.04
85317;BME280;75721;52.330;9.772;2024-03-02T08:26:53;100059.81;;;10.68;80.81
85317;BME280;75721;52.330;9.772;2024-03-02T08:29:18;100055.38;;;10.81;82.09
85317;BME280;75721;52.330;9.772;2024-03-02T08:31:44;100052.91;;;10.97;79.63
85317;BME280;75721;52.330;9.772;2024-03-02T08:34:09;100053.16;;;11.27;80.11
85317;BME280;75721;52.330;9.772;2024-03-02T08:36:34;100049.75;;;11.64;77.91
85317;BME280;75721;52.330;9.772;2024-03-02T08:39:00;100050.59;;;11.50;77.81
85317;BME280;75721;52.330;9.772;2024-03-02T08:41:25;100056.34;;;11.26;77.78
85317;BME280;75721;52.330;9.772;2024-03-02T08:43:50;100058.31;;;11.32;78.61
85317;BME280;75721;52.330;9.772;2024-03-02T08:46:16;100053.06;;;11.41;77.17
85317;BME280;75721;52.330;9.772;2024-03-02T08:48:41;100053.78;;;11.52;76.83
85317;BME280;75721;52.330;9.772;2024-03-02T08:51:06;100063.53;;;11.27;77.21
85317;BME280;75721;52.330;9.772;2024-03-02T08:53:33;100070.06;;;11.71;75.78
85317;BME280;75721;52.330;9.772;2024-03-02T08:55:58;100062.66;;;11.40;76.87
85317;BME280;75721;52.330;9.772;2024-03-02T08:58:24;100063.19;;;11.83;75.77
85317;BME280;75721;52.330;9.772;2024-03-02T09:00:49;100063.00;;;12.04;74.77
85317;BME280;75721;52.330;9.772;2024-03-02T09:03:14;100062.94;;;12.11;74.32
85317;BME280;75721;52.330;9.772;2024-03-02T09:05:40;100062.63;;;12.43;73.63
85317;BME280;75721;52.330;9.772;2024-03-02T09:08:05;100055.19;;;12.26;72.86
85317;BME280;75721;52.330;9.772;2024-03-02T09:10:33;100065.19;;;11.82;74.39
85317;BME280;75721;52.330;9.772;2024-03-02T09:12:59;100067.16;;;11.89;74.93
85317;BME280;75721;52.330;9.772;2024-03-02T09:15:24;100063.25;;;11.72;73.75
85317;BME280;75721;52.330;9.772;2024-03-02T09:17:50;100070.84;;;11.75;74.51
85317;BME280;75721;52.330;9.772;2024-03-02T09:20:15;100071.13;;;11.88;75.01
85317;BME280;75721;52.330;9.772;2024-03-02T09:22:41;100064.63;;;12.02;75.76
85317;BME280;75721;52.330;9.772;2024-03-02T09:25:07;100065.34;;;12.09;75.83
85317;BME280;75721;52.330;9.772;2024-03-02T09:27:36;100052.97;;;11.52;76.55
85317;BME280;75721;52.330;9.772;2024-03-02T09:30:02;100063.41;;;11.51;76.84
85317;BME280;75721;52.330;9.772;2024-03-02T09:32:27;100061.91;;;11.33;77.26
85317;BME280;75721;52.330;9.772;2024-03-02T09:34:53;100057.81;;;11.51;74.89
85317;BME280;75721;52.330;9.772;2024-03-02T09:37:18;100065.75;;;11.56;75.18
85317;BME280;75721;52.330;9.772;2024-03-02T09:39:44;100061.41;;;11.48;77.43
85317;BME280;75721;52.330;9.772;2024-03-02T09:42:10;100066.25;;;11.41;74.99
85317;BME280;75721;52.330;9.772;2024-03-02T09:44:36;100073.84;;;11.44;75.36
85317;BME280;75721;52.330;9.772;2024-03-02T09:47:02;100063.22;;;11.14;76.55
85317;BME280;75721;52.330;9.772;2024-03-02T09:49:27;100076.78;;;11.16;77.77
85317;BME280;75721;52.330;9.772;2024-03-02T09:51:53;100089.22;;;11.04;78.19
85317;BME280;75721;52.330;9.772;2024-03-02T09:54:18;100084.03;;;11.06;77.61
85317;BME280;75721;52.330;9.772;2024-03-02T09:56:44;100086.78;;;11.13;77.20
85317;BME280;75721;52.330;9.772;2024-03-02T09:59:10;100077.22;;;11.07;77.89
85317;BME280;75721;52.330;9.772;2024-03-02T10:01:36;100086.09;;;10.95;78.37
85317;BME280;75721;52.330;9.772;2024-03-02T10:04:01;100086.03;;;11.09;78.14
85317;BME280;75721;52.330;9.772;2024-03-02T10:06:30;100086.88;;;10.92;77.44
85317;BME280;75721;52.330;9.772;2024-03-02T10:08:59;100088.81;;;11.06;77.57
85317;BME280;75721;52.330;9.772;2024-03-02T10:11:29;100086.09;;;10.92;77.34
85317;BME280;75721;52.330;9.772;2024-03-02T10:14:12;100089.59;;;11.10;79.23
85317;BME280;75721;52.330;9.772;2024-03-02T10:16:43;100087.59;;;11.10;76.94
85317;BME280;75721;52.330;9.772;2024-03-02T10:19:25;100087.13;;;11.22;78.04
85317;BME280;75721;52.330;9.772;2024-03-02T10:21:54;100075.09;;;11.36;77.75
85317;BME280;75721;52.330;9.772;2024-03-02T10:24:21;100078.41;;;11.78;76.87
85317;BME280;75721;52.330;9.772;2024-03-02T10:26:48;100084.41;;;11.80;74.06
85317;BME280;75721;52.330;9.772;2024-03-02T10:29:13;100076.13;;;12.55;74.33
85317;BME280;75721;52.330;9.772;2024-03-02T10:31:40;100075.84;;;12.79;72.12
85317;BME280;75721;52.330;9.772;2024-03-02T10:34:07;100082.72;;;13.38;70.22
85317;BME280;75721;52.330;9.772;2024-03-02T10:36:33;100076.31;;;13.64;69.86
85317;BME280;75721;52.330;9.772;2024-03-02T10:39:02;100073.41;;;13.45;70.11
85317;BME280;75721;52.330;9.772;2024-03-02T10:41:37;100075.47;;;13.67;67.77
85317;BME280;75721;52.330;9.772;2024-03-02T10:44:04;100077.84;;;13.42;69.47
85317;BME280;75721;52.330;9.772;2024-03-02T10:46:31;100082.84;;;12.98;68.79
85317;BME280;75721;52.330;9.772;2024-03-02T10:48:57;100074.63;;;13.44;68.47
85317;BME280;75721;52.330;9.772;2024-03-02T10:51:27;100069.94;;;13.64;69.24
85317;BME280;75721;52.330;9.772;2024-03-02T10:53:54;100075.31;;;13.25;67.33
85317;BME280;75721;52.330;9.772;2024-03-02T10:56:55;100066.69;;;13.65;68.80
85317;BME280;75721;52.330;9.772;2024-03-02T11:01:51;100068.16;;;14.23;66.84
85317;BME280;75721;52.330;9.772;2024-03-02T11:04:19;100072.25;;;14.18;64.73
85317;BME280;75721;52.330;9.772;2024-03-02T11:06:48;100071.19;;;14.74;64.22
85317;BME280;75721;52.330;9.772;2024-03-02T11:09:14;100067.78;;;14.44;63.73
85317;BME280;75721;52.330;9.772;2024-03-02T11:11:43;100071.66;;;13.81;66.02
85317;BME280;75721;52.330;9.772;2024-03-02T11:14:17;100068.41;;;13.82;66.96
85317;BME280;75721;52.330;9.772;2024-03-02T11:16:46;100069.09;;;14.59;64.37
85317;BME280;75721;52.330;9.772;2024-03-02T11:19:13;100067.75;;;13.98;65.48
85317;BME280;75721;52.330;9.772;2024-03-02T11:21:48;100058.53;;;14.20;63.68
85317;BME280;75721;52.330;9.772;2024-03-02T11:24:33;100061.19;;;13.58;65.11
85317;BME280;75721;52.330;9.772;2024-03-02T11:26:59;100064.63;;;13.43;67.76
85317;BME280;75721;52.330;9.772;2024-03-02T11:32:02;100065.09;;;13.08;69.34
85317;BME280;75721;52.330;9.772;2024-03-02T11:34:34;100060.22;;;13.42;68.87
85317;BME280;75721;52.330;9.772;2024-03-02T11:37:04;100062.34;;;13.34;68.50
85317;BME280;75721;52.330;9.772;2024-03-02T11:39:30;100054.13;;;13.47;66.79
85317;BME280;75721;52.330;9.772;2024-03-02T11:41:57;100068.19;;;13.17;67.32
85317;BME280;75721;52.330;9.772;2024-03-02T11:44:29;100057.03;;;13.40;67.63
85317;BME280;75721;52.330;9.772;2024-03-02T11:46:58;100065.84;;;12.78;67.47
85317;BME280;75721;52.330;9.772;2024-03-02T11:49:50;100065.44;;;12.80;68.03
85317;BME280;75721;52.330;9.772;2024-03-02T11:52:17;100065.25;;;12.94;68.31
85317;BME280;75721;52.330;9.772;2024-03-02T11:54:44;100057.25;;;12.92;67.74
85317;BME280;75721;52.330;9.772;2024-03-02T11:57:22;100063.22;;;13.28;66.16
85317;BME280;75721;52.330;9.772;2024-03-02T11:59:48;100047.47;;;13.64;66.51
85317;BME280;75721;52.330;9.772;2024-03-02T12:02:20;100043.75;;;14.16;64.05
85317;BME280;75721;52.330;9.772;2024-03-02T12:04:46;100039.47;;;14.54;62.60
85317;BME280;75721;52.330;9.772;2024-03-02T12:07:19;100033.84;;;14.54;63.46
85317;BME280;75721;52.330;9.772;2024-03-02T12:09:46;100033.13;;;15.09;60.07
85317;BME280;75721;52.330;9.772;2024-03-02T12:12:11;100027.22;;;15.04;62.00
85317;BME280;75721;52.330;9.772;2024-03-02T12:14:38;100033.47;;;14.72;64.83
85317;BME280;75721;52.330;9.772;2024-03-02T12:17:04;100032.63;;;14.95;63.28
85317;BME280;75721;52.330;9.772;2024-03-02T12:19:31;100032.44;;;14.20;63.25
85317;BME280;75721;52.330;9.772;2024-03-02T12:21:57;100038.34;;;14.29;63.34
85317;BME280;75721;52.330;9.772;2024-03-02T12:24:29;100023.22;;;13.73;64.16
85317;BME280;75721;52.330;9.772;2024-03-02T12:26:55;100032.69;;;14.06;64.21
85317;BME280;75721;52.330;9.772;2024-03-02T12:29:20;100023.19;;;14.65;62.10
85317;BME280;75721;52.330;9.772;2024-03-02T12:31:50;100018.31;;;14.86;61.09
85317;BME280;75721;52.330;9.772;2024-03-02T12:34:18;100013.31;;;14.77;61.52
85317;BME280;75721;52.330;9.772;2024-03-02T12:36:43;100023.78;;;14.34;60.07
85317;BME280;75721;52.330;9.772;2024-03-02T12:39:13;100016.53;;;14.95;59.84
85317;BME280;75721;52.330;9.772;2024-03-02T12:41:39;100010.19;;;14.72;57.69
85317;BME280;75721;52.330;9.772;2024-03-02T12:44:07;100007.09;;;15.21;58.18
85317;BME280;75721;52.330;9.772;2024-03-02T12:46:33;99997.22;;;16.13;56.26
85317;BME280;75721;52.330;9.772;2024-03-02T12:48:58;99996.00;;;15.98;57.66
85317;BME280;75721;52.330;9.772;2024-03-02T12:51:30;99980.56;;;18.26;51.12
85317;BME280;75721;52.330;9.772;2024-03-02T12:53:55;99965.41;;;21.38;45.66
85317;BME280;75721;52.330;9.772;2024-03-02T12:56:21;99973.03;;;21.32;43.85
85317;BME280;75721;52.330;9.772;2024-03-02T12:58:47;99968.84;;;22.16;39.75
85317;BME280;75721;52.330;9.772;2024-03-02T13:01:14;99964.66;;;22.50;39.00
85317;BME280;75721;52.330;9.772;2024-03-02T13:03:40;99969.63;;;21.93;40.60
85317;BME280;75721;52.330;9.772;2024-03-02T13:06:07;99972.31;;;21.55;39.39